createdAt,value
2023-04-26T00:00:54.068Z,228.83
2023-04-26T00:01:54.108Z,227.81
2023-04-26T00:02:54.205Z,227.64
2023-04-26T00:03:54.370Z,227.55
2023-04-26T00:04:54.345Z,227.34
2023-04-26T00:05:54.263Z,227.40
2023-04-26T00:06:54.177Z,227.49
2023-04-26T00:07:54.200Z,227.67
2023-04-26T00:08:54.387Z,227.04
2023-04-26T00:09:54.236Z,227.62
2023-04-26T00:10:54.280Z,226.95
2023-04-26T00:11:54.321Z,227.23
2023-04-26T00:12:54.360Z,227.48
2023-04-26T00:13:54.394Z,227.47
2023-04-26T00:14:54.436Z,227.46
2023-04-26T00:15:54.521Z,228.21
2023-04-26T00:16:54.554Z,226.35
2023-04-26T00:17:54.743Z,226.34
2023-04-26T00:18:54.937Z,227.36
2023-04-26T00:19:54.785Z,227.56
2023-04-26T00:20:54.831Z,227.16
2023-04-26T00:21:54.894Z,226.87
2023-04-26T00:22:54.944Z,226.22
2023-04-26T00:23:55.040Z,226.26
2023-04-26T00:24:55.085Z,226.47
2023-04-26T00:25:55.129Z,226.57
2023-04-26T00:26:55.202Z,225.88
2023-04-26T00:27:55.272Z,226.51
2023-04-26T00:28:55.381Z,226.61
2023-04-26T00:29:55.376Z,225.69
2023-04-26T00:30:55.431Z,226.61
2023-04-26T00:31:55.536Z,225.80
2023-04-26T00:32:55.545Z,225.85
2023-04-26T00:33:55.516Z,225.09
2023-04-26T00:34:55.527Z,226.14
2023-04-26T00:35:55.524Z,225.98
2023-04-26T00:36:55.544Z,225.56
2023-04-26T00:37:55.549Z,225.48
2023-04-26T00:38:55.712Z,225.47
2023-04-26T00:39:55.520Z,225.08
2023-04-26T00:40:55.529Z,224.64
2023-04-26T00:41:55.554Z,226.06
2023-04-26T00:42:55.599Z,225.23
2023-04-26T00:43:55.692Z,224.25
2023-04-26T00:44:55.755Z,225.22
2023-04-26T00:45:55.865Z,225.08
2023-04-26T00:46:55.889Z,224.67
2023-04-26T00:47:55.968Z,225.53
2023-04-26T00:48:55.991Z,225.05
2023-04-26T00:49:56.029Z,224.95
2023-04-26T00:50:56.010Z,223.43
2023-04-26T00:51:56.035Z,224.09
2023-04-26T00:52:56.078Z,223.09
2023-04-26T00:53:56.089Z,223.34
2023-04-26T00:54:56.110Z,223.47
2023-04-26T00:55:56.163Z,223.81
2023-04-26T00:56:56.175Z,223.54
2023-04-26T00:57:56.216Z,223.31
2023-04-26T00:58:56.284Z,223.65
2023-04-26T00:59:56.283Z,223.66
2023-04-26T01:00:56.294Z,222.91
2023-04-26T01:01:56.366Z,223.28
2023-04-26T01:02:56.342Z,222.50
2023-04-26T01:03:56.433Z,222.68
2023-04-26T01:04:56.259Z,223.06
2023-04-26T01:05:56.267Z,222.40
2023-04-26T01:06:56.269Z,222.02
2023-04-26T01:07:56.280Z,222.06
2023-04-26T01:08:56.354Z,222.06
2023-04-26T01:09:56.397Z,223.00
2023-04-26T01:10:56.460Z,221.47
2023-04-26T01:11:56.539Z,222.74
2023-04-26T01:12:56.585Z,221.12
2023-04-26T01:13:56.661Z,220.95
2023-04-26T01:14:56.725Z,221.01
2023-04-26T01:15:56.785Z,221.57
2023-04-26T01:16:56.866Z,221.15
2023-04-26T01:17:56.828Z,221.35
2023-04-26T01:18:56.869Z,221.03
2023-04-26T01:19:56.938Z,221.48
2023-04-26T01:20:57.022Z,221.69
2023-04-26T01:21:57.067Z,221.29
2023-04-26T01:22:57.143Z,220.83
2023-04-26T01:23:57.235Z,220.86
2023-04-26T01:24:57.300Z,220.12
2023-04-26T01:25:57.289Z,220.23
2023-04-26T01:26:57.364Z,220.39
2023-04-26T01:27:57.428Z,220.55
2023-04-26T01:28:57.516Z,220.10
2023-04-26T01:29:57.560Z,220.39
2023-04-26T01:30:57.659Z,220.00
2023-04-26T01:31:57.591Z,220.01
2023-04-26T01:32:57.641Z,220.11
2023-04-26T01:33:57.620Z,220.28
2023-04-26T01:34:57.577Z,220.22
2023-04-26T01:35:57.597Z,218.87
2023-04-26T01:36:57.591Z,220.06
2023-04-26T01:37:57.591Z,220.15
2023-04-26T01:38:57.583Z,220.05
2023-04-26T01:39:57.582Z,218.93
2023-04-26T01:40:57.573Z,220.27
2023-04-26T01:41:57.582Z,219.61
2023-04-26T01:42:57.577Z,219.14
2023-04-26T01:43:57.574Z,219.19
2023-04-26T01:44:57.566Z,219.16
2023-04-26T01:45:57.586Z,218.62
2023-04-26T01:46:57.591Z,219.90
2023-04-26T01:47:57.601Z,218.77
2023-04-26T01:48:57.598Z,219.44
2023-04-26T01:49:57.593Z,218.92
2023-04-26T01:50:57.582Z,218.84
2023-04-26T01:51:57.612Z,218.32
2023-04-26T01:52:57.586Z,219.34
2023-04-26T01:53:57.606Z,218.38
2023-04-26T01:54:57.598Z,218.09
2023-04-26T01:55:57.604Z,218.34
2023-04-26T01:56:57.605Z,218.16
2023-04-26T01:57:57.623Z,217.68
2023-04-26T01:58:57.685Z,217.09
2023-04-26T01:59:57.640Z,217.86
2023-04-26T02:00:57.672Z,217.74
2023-04-26T02:01:57.741Z,217.12
2023-04-26T02:02:57.847Z,218.09
2023-04-26T02:03:57.788Z,217.72
2023-04-26T02:04:57.822Z,216.76
2023-04-26T02:05:57.834Z,216.80
2023-04-26T02:06:57.821Z,217.01
2023-04-26T02:07:57.818Z,217.27
2023-04-26T02:08:57.852Z,217.54
2023-04-26T02:09:57.828Z,217.52
2023-04-26T02:10:57.840Z,217.42
2023-04-26T02:11:57.874Z,217.58
2023-04-26T02:12:57.844Z,217.03
2023-04-26T02:13:57.865Z,217.64
2023-04-26T02:14:57.861Z,217.22
2023-04-26T02:15:57.921Z,217.24
2023-04-26T02:16:57.851Z,217.22
2023-04-26T02:17:57.923Z,217.27
2023-04-26T02:18:57.869Z,217.38
2023-04-26T02:19:57.858Z,217.71
2023-04-26T02:20:57.866Z,217.38
2023-04-26T02:21:57.921Z,217.22
2023-04-26T02:22:57.879Z,216.00
2023-04-26T02:23:57.886Z,217.03
2023-04-26T02:24:57.897Z,215.84
2023-04-26T02:25:57.997Z,216.00
2023-04-26T02:26:58.041Z,216.46
2023-04-26T02:27:58.116Z,215.67
2023-04-26T02:28:58.190Z,215.90
2023-04-26T02:29:58.272Z,215.08
2023-04-26T02:30:58.337Z,215.40
2023-04-26T02:31:58.524Z,215.63
2023-04-26T02:32:58.514Z,214.73
2023-04-26T02:33:58.565Z,216.17
2023-04-26T02:34:58.619Z,215.36
2023-04-26T02:35:58.717Z,214.91
2023-04-26T02:36:58.768Z,215.02
2023-04-26T02:37:58.830Z,215.07
2023-04-26T02:38:58.906Z,215.74
2023-04-26T02:39:58.969Z,215.53
2023-04-26T02:40:59.036Z,215.27
2023-04-26T02:41:59.098Z,214.65
2023-04-26T02:42:59.110Z,214.71
2023-04-26T02:43:59.124Z,214.74
2023-04-26T02:44:59.109Z,215.10
2023-04-26T02:45:59.105Z,213.28
2023-04-26T02:46:59.164Z,208.00
2023-04-26T02:47:59.167Z,196.45
2023-04-26T02:48:59.152Z,185.63
2023-04-26T02:49:59.152Z,176.92
2023-04-26T02:50:59.123Z,166.95
2023-04-26T02:51:59.161Z,162.72
2023-04-26T02:52:59.139Z,153.41
2023-04-26T02:53:59.167Z,148.09
2023-04-26T02:54:59.173Z,142.46
2023-04-26T02:55:59.218Z,137.09
2023-04-26T02:56:59.274Z,132.67
2023-04-26T02:57:59.329Z,127.41
2023-04-26T02:58:59.340Z,123.45
2023-04-26T02:59:59.346Z,119.60
2023-04-26T03:01:01.282Z,114.94
2023-04-26T03:01:59.450Z,111.95
2023-04-26T03:02:59.524Z,109.50
2023-04-26T03:03:59.517Z,106.27
2023-04-26T03:04:59.418Z,103.21
2023-04-26T03:05:59.480Z,101.02
2023-04-26T03:06:59.534Z,99.76
2023-04-26T03:07:59.543Z,97.82
2023-04-26T03:08:59.556Z,97.20
2023-04-26T03:09:59.549Z,94.35
2023-04-26T03:10:59.572Z,92.52
2023-04-26T03:11:59.576Z,90.42
2023-04-26T03:12:59.595Z,90.98
2023-04-26T03:13:59.617Z,91.06
2023-04-26T03:14:59.588Z,89.28
2023-04-26T03:15:59.605Z,89.91
2023-04-26T03:16:59.696Z,88.01
2023-04-26T03:17:59.680Z,88.15
2023-04-26T03:18:59.667Z,87.42
2023-04-26T03:20:01.824Z,85.16
2023-04-26T03:20:59.678Z,85.36
2023-04-26T03:21:59.700Z,84.07
2023-04-26T03:22:59.693Z,83.48
2023-04-26T03:23:59.734Z,81.68
2023-04-26T03:24:59.717Z,79.72
2023-04-26T03:25:59.746Z,77.38
2023-04-26T03:26:59.746Z,76.99
2023-04-26T03:27:59.784Z,76.00
2023-04-26T03:28:59.789Z,75.34
2023-04-26T03:29:59.799Z,74.20
2023-04-26T03:30:59.828Z,73.36
2023-04-26T03:31:59.899Z,71.77
2023-04-26T03:32:59.920Z,69.12
2023-04-26T03:33:59.870Z,68.30
2023-04-26T03:34:59.893Z,67.56
2023-04-26T03:35:59.890Z,65.16
2023-04-26T03:36:59.895Z,66.35
2023-04-26T03:37:59.917Z,66.27
2023-04-26T03:38:59.953Z,66.01
2023-04-26T03:39:59.962Z,64.37
2023-04-26T03:40:59.968Z,64.71
2023-04-26T03:42:00.032Z,64.01
2023-04-26T03:43:00.028Z,62.99
2023-04-26T03:44:00.100Z,64.01
2023-04-26T03:45:00.061Z,62.38
2023-04-26T03:46:00.135Z,61.25
2023-04-26T03:47:00.094Z,61.17
2023-04-26T03:48:00.207Z,60.18
2023-04-26T03:49:00.224Z,58.92
2023-04-26T03:50:00.203Z,57.95
2023-04-26T03:51:00.176Z,57.24
2023-04-26T03:52:00.197Z,56.10
2023-04-26T03:53:00.204Z,55.67
2023-04-26T03:54:00.233Z,54.96
2023-04-26T03:55:00.251Z,50.20
2023-04-26T03:56:00.256Z,52.43
2023-04-26T03:57:00.272Z,52.44
2023-04-26T03:58:00.308Z,50.00
2023-04-26T03:59:00.324Z,48.42
2023-04-26T04:00:00.362Z,47.46
2023-04-26T04:01:00.351Z,46.78
2023-04-26T04:02:00.412Z,46.83
2023-04-26T04:03:00.473Z,46.86
2023-04-26T04:04:00.838Z,47.02
2023-04-26T04:05:00.796Z,47.31
2023-04-26T04:06:00.466Z,47.91
2023-04-26T04:07:00.498Z,48.79
2023-04-26T04:08:00.545Z,48.99
2023-04-26T04:09:00.521Z,50.80
2023-04-26T04:10:00.558Z,50.34
2023-04-26T04:11:00.568Z,48.45
2023-04-26T04:12:00.634Z,51.52
2023-04-26T04:13:00.686Z,49.85
2023-04-26T04:14:00.791Z,51.48
2023-04-26T04:15:00.855Z,51.58
2023-04-26T04:16:00.959Z,51.63
2023-04-26T04:17:01.015Z,52.68
2023-04-26T04:18:01.056Z,52.70
2023-04-26T04:19:01.047Z,51.25
2023-04-26T04:20:01.067Z,53.05
2023-04-26T04:21:01.109Z,52.89
2023-04-26T04:22:01.105Z,52.65
2023-04-26T04:23:01.136Z,54.63
2023-04-26T04:24:01.164Z,56.67
2023-04-26T04:25:01.200Z,57.63
2023-04-26T04:26:01.226Z,61.73
2023-04-26T04:27:01.276Z,63.68
2023-04-26T04:28:01.351Z,64.95
2023-04-26T04:29:01.437Z,69.92
2023-04-26T04:30:01.523Z,71.88
2023-04-26T04:31:01.640Z,73.41
2023-04-26T04:32:01.656Z,75.19
2023-04-26T04:33:01.747Z,76.50
2023-04-26T04:34:01.792Z,77.43
2023-04-26T04:35:01.870Z,78.96
2023-04-26T04:36:01.945Z,78.97
2023-04-26T04:37:02.008Z,76.70
2023-04-26T04:38:02.053Z,76.30
2023-04-26T04:39:02.112Z,77.60
2023-04-26T04:40:02.172Z,75.65
2023-04-26T04:41:02.222Z,76.43
2023-04-26T04:42:02.306Z,75.37
2023-04-26T04:43:02.299Z,75.43
2023-04-26T04:44:02.335Z,75.38
2023-04-26T04:45:02.348Z,75.12
2023-04-26T04:46:02.412Z,72.40
2023-04-26T04:47:02.382Z,73.54
2023-04-26T04:48:02.466Z,72.87
2023-04-26T04:49:02.409Z,72.51
2023-04-26T04:50:02.438Z,70.94
2023-04-26T04:51:02.462Z,71.05
2023-04-26T04:52:02.466Z,73.02
2023-04-26T04:53:02.500Z,73.55
2023-04-26T04:54:02.532Z,74.21
2023-04-26T04:55:02.547Z,72.89
2023-04-26T04:56:02.536Z,75.23
2023-04-26T04:57:02.567Z,75.96
2023-04-26T04:58:02.635Z,78.32
2023-04-26T04:59:02.677Z,78.79
2023-04-26T05:00:02.797Z,80.12
2023-04-26T05:01:02.884Z,79.30
2023-04-26T05:02:02.902Z,79.37
2023-04-26T05:03:03.038Z,79.34
2023-04-26T05:04:03.052Z,79.39
2023-04-26T05:05:02.935Z,77.91
2023-04-26T05:06:02.947Z,76.25
2023-04-26T05:07:02.952Z,74.46
2023-04-26T05:08:02.977Z,74.59
2023-04-26T05:09:03.013Z,71.38
2023-04-26T05:10:03.048Z,71.48
2023-04-26T05:11:03.049Z,70.72
2023-04-26T05:12:03.054Z,70.59
2023-04-26T05:13:03.075Z,71.37
2023-04-26T05:14:03.117Z,71.97
2023-04-26T05:15:03.166Z,70.58
2023-04-26T05:16:03.204Z,67.63
2023-04-26T05:17:03.156Z,68.70
2023-04-26T05:18:03.248Z,68.22
2023-04-26T05:19:03.208Z,68.37
2023-04-26T05:20:03.226Z,68.28
2023-04-26T05:21:03.224Z,68.29
2023-04-26T05:22:03.238Z,68.12
2023-04-26T05:23:03.268Z,67.91
2023-04-26T05:24:03.274Z,69.85
2023-04-26T05:25:03.293Z,71.00
2023-04-26T05:26:03.318Z,71.81
2023-04-26T05:27:03.338Z,73.64
2023-04-26T05:28:03.355Z,75.74
2023-04-26T05:29:03.374Z,78.42
2023-04-26T05:30:03.461Z,78.96
2023-04-26T05:31:03.443Z,81.87
2023-04-26T05:32:03.573Z,84.07
2023-04-26T05:33:03.482Z,85.77
2023-04-26T05:34:03.460Z,87.51
2023-04-26T05:35:03.484Z,90.76
2023-04-26T05:36:03.496Z,91.77
2023-04-26T05:37:03.571Z,94.07
2023-04-26T05:38:03.566Z,96.64
2023-04-26T05:39:03.578Z,98.92
2023-04-26T05:40:03.618Z,100.93
2023-04-26T05:41:03.669Z,103.73
2023-04-26T05:42:03.703Z,103.86
2023-04-26T05:43:03.714Z,104.48
2023-04-26T05:44:03.736Z,106.86
2023-04-26T05:45:03.784Z,111.90
2023-04-26T05:46:03.870Z,104.27
2023-04-26T05:47:03.785Z,106.41
2023-04-26T05:48:03.887Z,110.67
2023-04-26T05:49:03.808Z,117.75
2023-04-26T05:50:03.829Z,130.02
2023-04-26T05:51:03.849Z,133.98
2023-04-26T05:52:03.873Z,135.53
2023-04-26T05:53:03.888Z,137.10
2023-04-26T05:54:03.884Z,138.76
2023-04-26T05:55:04.054Z,140.78
2023-04-26T05:56:03.915Z,142.81
2023-04-26T05:57:04.017Z,145.67
2023-04-26T05:58:04.118Z,148.47
2023-04-26T05:59:04.117Z,146.96
2023-04-26T06:00:04.201Z,146.07
2023-04-26T06:01:04.278Z,147.20
2023-04-26T06:02:04.383Z,147.69
2023-04-26T06:03:04.568Z,148.38
2023-04-26T06:04:04.877Z,147.71
2023-04-26T06:05:04.744Z,148.22
2023-04-26T06:06:04.616Z,148.82
2023-04-26T06:07:04.730Z,149.38
2023-04-26T06:08:04.777Z,150.44
2023-04-26T06:09:04.844Z,150.27
2023-04-26T06:10:04.967Z,150.88
2023-04-26T06:11:04.992Z,151.02
2023-04-26T06:12:05.072Z,152.24
2023-04-26T06:13:05.142Z,152.40
2023-04-26T06:14:05.185Z,151.18
2023-04-26T06:15:05.264Z,151.76
2023-04-26T06:16:05.322Z,152.12
2023-04-26T06:17:05.471Z,151.10
2023-04-26T06:18:05.519Z,152.02
2023-04-26T06:19:05.534Z,152.51
2023-04-26T06:20:05.598Z,151.70
2023-04-26T06:21:05.667Z,153.03
2023-04-26T06:22:05.741Z,151.07
2023-04-26T06:23:05.783Z,151.08
2023-04-26T06:24:05.910Z,151.13
2023-04-26T06:25:05.927Z,149.03
2023-04-26T06:26:05.988Z,149.86
2023-04-26T06:27:06.011Z,151.58
2023-04-26T06:28:06.089Z,151.89
2023-04-26T06:29:06.133Z,154.34
2023-04-26T06:30:06.207Z,159.34
2023-04-26T06:31:06.233Z,161.77
2023-04-26T06:32:06.272Z,165.21
2023-04-26T06:33:06.344Z,169.06
2023-04-26T06:34:06.524Z,173.29
2023-04-26T06:35:06.403Z,175.57
2023-04-26T06:36:06.407Z,179.65
2023-04-26T06:37:06.455Z,183.90
2023-04-26T06:38:06.568Z,185.97
2023-04-26T06:39:06.581Z,190.57
2023-04-26T06:40:06.604Z,193.93
2023-04-26T06:41:06.587Z,197.35
2023-04-26T06:42:06.642Z,203.70
2023-04-26T06:43:06.707Z,200.78
2023-04-26T06:44:06.781Z,190.50
2023-04-26T06:45:06.955Z,194.01
2023-04-26T06:46:06.768Z,182.02
2023-04-26T06:47:06.797Z,157.14
2023-04-26T06:48:06.914Z,132.15
2023-04-26T06:49:06.928Z,109.62
2023-04-26T06:50:06.954Z,88.03
2023-04-26T06:51:06.958Z,70.38
2023-04-26T06:52:08.252Z,57.94
2023-04-26T06:53:06.976Z,50.80
2023-04-26T06:54:06.992Z,34.25
2023-04-26T06:55:06.997Z,22.40
2023-04-26T06:56:06.969Z,13.37
2023-04-26T06:57:06.959Z,12.85
2023-04-26T06:58:06.945Z,3.26
2023-04-26T06:59:06.992Z,0.00
2023-04-26T07:00:06.954Z,0.00
2023-04-26T07:01:06.926Z,0.00
2023-04-26T07:02:06.894Z,2.05
2023-04-26T07:03:06.990Z,13.31
2023-04-26T07:04:07.277Z,19.92
2023-04-26T07:05:06.977Z,25.65
2023-04-26T07:06:06.853Z,25.65
2023-04-26T07:07:06.814Z,20.48
2023-04-26T07:08:06.809Z,18.51
2023-04-26T07:09:06.867Z,17.53
2023-04-26T07:10:06.838Z,13.98
2023-04-26T07:11:06.846Z,19.56
2023-04-26T07:12:07.023Z,18.33
2023-04-26T07:13:09.304Z,19.57
2023-04-26T07:14:07.137Z,15.90
2023-04-26T07:15:07.207Z,14.26
2023-04-26T07:16:07.244Z,9.91
2023-04-26T07:17:07.279Z,14.99
2023-04-26T07:18:07.369Z,20.62
2023-04-26T07:19:07.433Z,25.00
2023-04-26T07:20:07.576Z,25.00
2023-04-26T07:21:07.620Z,26.15
2023-04-26T07:22:07.668Z,25.03
2023-04-26T07:23:07.704Z,27.06
2023-04-26T07:24:07.784Z,30.81
2023-04-26T07:25:07.811Z,30.92
2023-04-26T07:26:07.805Z,31.19
2023-04-26T07:27:07.821Z,33.83
2023-04-26T07:28:07.815Z,31.80
2023-04-26T07:29:07.841Z,36.33
2023-04-26T07:30:07.871Z,45.82
2023-04-26T07:31:09.601Z,62.16
2023-04-26T07:32:07.950Z,86.20
2023-04-26T07:33:08.021Z,32.93
2023-04-26T07:34:07.908Z,41.00
2023-04-26T07:35:07.963Z,57.17
2023-04-26T07:36:07.925Z,82.02
2023-04-26T07:37:07.981Z,115.35
2023-04-26T07:38:07.974Z,122.88
2023-04-26T07:39:07.964Z,119.90
2023-04-26T07:40:08.003Z,114.54
2023-04-26T07:41:07.993Z,106.25
2023-04-26T07:42:07.999Z,108.23
2023-04-26T07:43:08.011Z,95.62
2023-04-26T07:44:08.047Z,87.87
2023-04-26T07:45:08.075Z,78.51
2023-04-26T07:46:08.105Z,76.41
2023-04-26T07:47:08.135Z,80.63
2023-04-26T07:48:08.144Z,89.06
2023-04-26T07:49:08.185Z,98.53
2023-04-26T07:50:08.254Z,103.58
2023-04-26T07:51:08.340Z,107.67
2023-04-26T07:52:08.371Z,112.08
2023-04-26T07:53:08.450Z,117.79
2023-04-26T07:54:08.517Z,121.99
2023-04-26T07:55:08.618Z,128.30
2023-04-26T07:56:08.628Z,133.73
2023-04-26T07:57:08.639Z,140.02
2023-04-26T07:58:08.778Z,145.25
2023-04-26T07:59:08.723Z,148.73
2023-04-26T08:00:08.703Z,153.04
2023-04-26T08:01:08.742Z,157.09
2023-04-26T08:02:08.809Z,160.90
2023-04-26T08:03:08.945Z,164.60
2023-04-26T08:04:09.076Z,168.48
2023-04-26T08:05:08.907Z,168.56
2023-04-26T08:06:08.946Z,169.16
2023-04-26T08:07:08.791Z,170.44
2023-04-26T08:08:08.804Z,174.11
2023-04-26T08:09:08.791Z,180.75
2023-04-26T08:10:08.797Z,182.85
2023-04-26T08:11:08.840Z,186.11
2023-04-26T08:12:08.812Z,187.16
2023-04-26T08:13:08.796Z,189.36
2023-04-26T08:14:08.785Z,189.92
2023-04-26T08:15:08.798Z,191.37
2023-04-26T08:16:08.789Z,192.78
2023-04-26T08:17:08.928Z,193.51
2023-04-26T08:18:08.840Z,194.37
2023-04-26T08:19:08.793Z,194.33
2023-04-26T08:20:08.787Z,196.38
